Kanopolis, KS (67454)

12:46 AM CST on December 04, 2016 (GMT -0600)
Venango Lane @ Kanopolis Lake | | Change Station

Elev 1539 ft 38.64 °N, 97.99 °W | Updated 3 seconds ago

Rain
Rain Mist
39.7 °F
Feels Like 40 °F
N
1.0
Wind Variable Wind from South

Today
High -- | Low -- °F
--% Chance of Precip.
Yesterday
High -- | Low -- °F
Precip. -- in
Pressure 30.07 in
Visibility 4.0 miles
Clouds Overcast 2800 ft
Windchill 40 °F
Dew Point 38 °F
Humidity 96%
Rainfall 0.04 in
Snow Depth Not available.
7:35 AM 5:11 PM
Waxing Crescent, 20% visible
SPECI KSLN 040611Z AUTO 18004KT 4SM RA BR OVC028 05/04 A3007 RMK AO2 P0002 T00500044
Pressure 30.07 in
Visibility 4.0 miles
Clouds Overcast 2800 ft
Windchill 40 °F
Dew Point 38 °F
Humidity 96%
Rainfall 0.04 in
Snow Depth Not available.
7:35 AM 5:11 PM
Waxing Crescent, 20% visible
SPECI KSLN 040611Z AUTO 18004KT 4SM RA BR OVC028 05/04 A3007 RMK AO2 P0002 T00500044

10-Day Weather Forecast

Almanac

Astronomy

Dec. 04, 2016 Rise Set
Actual Time
Civil Twilight
Nautical Twilight
Astronomical Twilight
Moon
Length of Visible Light
Length of Day
Tomorrow will be .
, % of the Moon is Illuminated

Today's Extremes

State Highs State Lows

Community

WunderPhotos

Upload Photos

1,955,588 photos uploaded!

WunderBlog® & News

Nearby

Air Quality

  Air Quality AQ Index Pollutant
Not available.

Snow Depth

Station Depth Elevation

Earthquake Activity

City Distance Mag. Time & Date
Minimum magnitude displayed is 2.5.

Coastal Water Temperatures

Place Temperature

Stations

Nearby Weather Stations

Station Location Temp. Windchill Dew Point Humidity Wind Precip. Elev Updated Type
                   

Watches & Warnings

There are currently no watches in effect.